Time;durP1;ratioP1;P1;durP2;ratioP2;P2;SDS_P1;SDS_P2;PMS_P1;PMS_P2;Temp;Humidity;BMP_temperature;BMP_pressure;BME280_temperature;BME280_humidity;BME280_pressure;Samples;Min_cycle;Max_cycle;Signal;HPM_P1;HPM_P2
2022/04/28 00:00:40;;;;;;;14.63;5.30;;;7.50;58.00;;;;;;5080020;28;20052;-73
2022/04/28 00:03:10;;;;;;;19.70;4.93;;;7.50;58.00;;;;;;5082507;28;20043;-73
2022/04/28 00:05:38;;;;;;;16.00;4.70;;;7.50;58.10;;;;;;5105774;28;20043;-73
2022/04/28 00:08:07;;;;;;;15.10;5.05;;;7.50;58.10;;;;;;5095069;28;20051;-73
2022/04/28 00:10:36;;;;;;;10.65;5.18;;;7.50;58.30;;;;;;5086638;28;20067;-74
2022/04/28 00:13:05;;;;;;;16.27;5.28;;;7.40;58.30;;;;;;5104498;28;20055;-73
2022/04/28 00:15:33;;;;;;;12.90;5.22;;;7.40;58.50;;;;;;5093464;28;20055;-73
2022/04/28 00:18:02;;;;;;;16.40;5.50;;;7.40;58.60;;;;;;5105506;28;20036;-73
2022/04/28 00:20:29;;;;;;;12.30;5.57;;;7.40;58.70;;;;;;5093098;28;20047;-73
2022/04/28 00:22:57;;;;;;;10.10;5.63;;;7.30;58.70;;;;;;5079471;28;20043;-72
2022/04/28 00:25:25;;;;;;;19.50;6.63;;;7.30;58.80;;;;;;5082107;28;20049;-73
2022/04/28 00:27:54;;;;;;;21.98;6.32;;;7.30;58.90;;;;;;5086760;28;20508;-73
2022/04/28 00:30:21;;;;;;;15.32;6.95;;;7.30;58.80;;;;;;5084356;28;20044;-73
2022/04/28 00:32:49;;;;;;;16.17;6.22;;;7.30;59.00;;;;;;5090462;28;20048;-73
2022/04/28 00:35:17;;;;;;;23.52;6.57;;;7.20;59.00;;;;;;5083509;28;20048;-73
2022/04/28 00:37:44;;;;;;;13.25;6.93;;;7.20;59.10;;;;;;5098921;28;20230;-73
2022/04/28 00:40:12;;;;;;;13.07;6.57;;;7.20;59.00;;;;;;5079776;28;20383;-72
2022/04/28 00:42:40;;;;;;;16.85;6.80;;;7.20;58.90;;;;;;5085815;28;20060;-73
2022/04/28 00:45:08;;;;;;;15.55;6.93;;;7.10;58.90;;;;;;5092915;28;20071;-73
2022/04/28 00:50:38;;;;;;;16.63;6.95;;;7.10;59.20;;;;;;5089959;28;20062;-73
2022/04/28 00:53:12;;;;;;;16.23;7.00;;;7.20;59.10;;;;;;5091511;28;20043;-73
2022/04/28 00:55:42;;;;;;;14.18;7.22;;;7.20;59.20;;;;;;5091649;28;20052;-74
2022/04/28 00:58:11;;;;;;;18.10;7.50;;;7.10;59.20;;;;;;5092229;28;20516;-74
2022/04/28 01:00:40;;;;;;;11.57;6.90;;;7.10;59.20;;;;;;5080990;28;20124;-73
2022/04/28 01:03:11;;;;;;;17.48;8.18;;;7.20;59.40;;;;;;5090066;28;20040;-72
2022/04/28 01:05:39;;;;;;;15.65;8.10;;;7.20;59.40;;;;;;5070554;28;20052;-73
2022/04/28 01:08:08;;;;;;;19.88;8.25;;;7.10;59.40;;;;;;5081945;28;20036;-72
2022/04/28 01:10:35;;;;;;;13.82;7.50;;;7.10;59.60;;;;;;5079555;28;20048;-73
2022/04/28 01:13:05;;;;;;;17.10;7.75;;;7.10;59.70;;;;;;5091037;28;20312;-73
2022/04/28 01:15:45;;;;;;;12.93;7.13;;;7.10;59.90;;;;;;5091476;28;20378;-73
2022/04/28 01:18:14;;;;;;;16.35;7.65;;;7.10;60.00;;;;;;5079103;28;20049;-73
2022/04/28 01:20:43;;;;;;;12.43;7.30;;;7.10;59.90;;;;;;5077761;28;20056;-73
2022/04/28 01:23:11;;;;;;;15.48;7.70;;;7.10;60.00;;;;;;5077874;28;20516;-73
2022/04/28 01:25:40;;;;;;;15.65;7.95;;;7.10;60.20;;;;;;5056848;28;20049;-73
2022/04/28 01:28:08;;;;;;;15.85;8.35;;;7.10;60.20;;;;;;5079179;28;20041;-72
2022/04/28 01:30:37;;;;;;;14.00;8.52;;;7.00;60.20;;;;;;5086981;28;20044;-73
2022/04/28 01:33:06;;;;;;;14.13;7.82;;;7.10;60.30;;;;;;5077020;28;20056;-73
2022/04/28 01:35:34;;;;;;;18.42;8.05;;;7.10;60.60;;;;;;5081056;28;20059;-72
2022/04/28 01:38:03;;;;;;;17.58;8.25;;;7.10;60.60;;;;;;5074891;28;20390;-73
2022/04/28 01:40:31;;;;;;;16.88;8.13;;;7.10;60.50;;;;;;5086555;28;20480;-72
2022/04/28 01:43:01;;;;;;;10.02;6.38;;;7.10;60.60;;;;;;5076105;28;20044;-72
2022/04/28 01:45:29;;;;;;;14.00;6.78;;;7.10;60.60;;;;;;5077083;28;20060;-73
2022/04/28 01:48:09;;;;;;;14.38;6.45;;;7.10;60.60;;;;;;5079562;28;20118;-73
2022/04/28 01:56:52;;;;;;;12.48;5.75;;;7.00;60.60;;;;;;5031932;28;20057;-73
2022/04/28 01:59:31;;;;;;;10.75;5.65;;;7.00;60.60;;;;;;5006283;28;20040;-73
2022/04/28 02:02:19;;;;;;;10.35;5.40;;;7.00;60.70;;;;;;5040132;28;20072;-73
2022/04/28 02:04:48;;;;;;;11.55;5.70;;;7.00;60.70;;;;;;5039716;28;20056;-73
2022/04/28 02:07:16;;;;;;;16.02;5.93;;;7.00;60.90;;;;;;5032873;28;20049;-72
2022/04/28 02:09:45;;;;;;;17.73;7.22;;;7.00;61.00;;;;;;5028243;28;20053;-72
2022/04/28 02:12:14;;;;;;;14.15;6.38;;;7.00;61.00;;;;;;5046264;28;20048;-72
2022/04/28 02:15:04;;;;;;;10.77;6.35;;;7.00;61.00;;;;;;5031659;28;20085;-73
2022/04/28 02:17:50;;;;;;;14.73;6.40;;;7.00;61.00;;;;;;5036616;28;20414;-73
2022/04/28 02:20:19;;;;;;;18.35;6.93;;;7.00;61.10;;;;;;5018655;28;20059;-73
2022/04/28 02:22:49;;;;;;;15.10;7.10;;;7.00;61.10;;;;;;5022174;28;20068;-74
2022/04/28 02:25:17;;;;;;;21.20;6.95;;;7.00;61.30;;;;;;5013584;28;20410;-73
2022/04/28 02:27:45;;;;;;;19.13;6.72;;;7.00;61.30;;;;;;5055429;28;20056;-73
2022/04/28 02:30:13;;;;;;;17.58;6.40;;;7.00;61.40;;;;;;5078432;28;20048;-73
2022/04/28 02:36:13;;;;;;;12.65;4.25;;;7.00;61.60;;;;;;5002849;28;20054;-73
2022/04/28 02:38:40;;;;;;;11.15;4.32;;;7.00;61.40;;;;;;5004871;28;20045;-73
2022/04/28 02:41:11;;;;;;;11.85;3.97;;;6.90;61.40;;;;;;5001925;28;20053;-73
2022/04/28 02:43:39;;;;;;;10.77;3.80;;;6.90;61.30;;;;;;4989255;28;20077;-73
2022/04/28 02:46:14;;;;;;;9.38;3.33;;;6.90;61.40;;;;;;4986707;28;20038;-73
2022/04/28 02:49:09;;;;;;;8.48;3.08;;;6.90;61.40;;;;;;4987950;28;20573;-73
2022/04/28 02:51:39;;;;;;;8.65;3.42;;;6.90;61.50;;;;;;4972503;28;20050;-73
2022/04/28 02:54:09;;;;;;;8.52;3.30;;;6.90;61.60;;;;;;4993967;28;20058;-73
2022/04/28 02:56:44;;;;;;;10.32;3.30;;;7.00;61.60;;;;;;5002498;28;20218;-73
2022/04/28 02:59:12;;;;;;;8.07;3.20;;;6.90;61.60;;;;;;4985361;28;20496;-73
2022/04/28 03:01:40;;;;;;;8.98;3.05;;;6.90;61.60;;;;;;5001348;28;20053;-73
2022/04/28 03:04:08;;;;;;;12.48;3.17;;;6.90;61.70;;;;;;4995626;28;20043;-73
2022/04/28 03:12:10;;;;;;;9.93;3.22;;;7.00;61.70;;;;;;5084701;28;20044;-73
2022/04/28 03:14:44;;;;;;;10.75;2.70;;;7.00;61.70;;;;;;5073120;28;20432;-73
2022/04/28 03:17:12;;;;;;;6.25;2.88;;;7.00;61.80;;;;;;5070911;28;20049;-74
2022/04/28 03:19:40;;;;;;;7.70;2.95;;;7.00;61.90;;;;;;5082910;28;20064;-73
2022/04/28 03:22:08;;;;;;;6.80;2.70;;;7.00;61.90;;;;;;5075534;28;20410;-73
2022/04/28 03:24:36;;;;;;;8.50;3.03;;;7.00;62.00;;;;;;5082453;28;20053;-74
2022/04/28 03:27:04;;;;;;;13.70;2.95;;;7.00;62.10;;;;;;5078974;28;20651;-73
2022/04/28 03:29:32;;;;;;;10.77;3.08;;;7.00;62.20;;;;;;5084059;28;20386;-73
2022/04/28 03:32:00;;;;;;;8.20;2.80;;;7.00;62.20;;;;;;5087183;28;20090;-72
2022/04/28 03:34:35;;;;;;;13.38;3.13;;;7.00;62.30;;;;;;5084215;28;20048;-72
2022/04/28 03:37:03;;;;;;;6.50;3.20;;;7.00;62.30;;;;;;5083902;28;20413;-73
2022/04/28 03:39:37;;;;;;;9.90;2.92;;;7.00;62.50;;;;;;5083095;28;20036;-73
2022/04/28 03:42:06;;;;;;;7.72;3.10;;;7.00;62.40;;;;;;5075192;28;20044;-73
2022/04/28 03:44:35;;;;;;;9.20;3.00;;;7.00;62.40;;;;;;5086729;28;20052;-73
2022/04/28 03:47:03;;;;;;;13.02;2.83;;;7.00;62.50;;;;;;5072644;28;20067;-73
2022/04/28 03:49:32;;;;;;;7.75;2.80;;;7.00;62.60;;;;;;5078019;28;20056;-73
2022/04/28 03:52:00;;;;;;;7.90;3.20;;;7.00;62.50;;;;;;5077619;28;20044;-73
2022/04/28 03:54:29;;;;;;;7.45;2.70;;;7.00;62.50;;;;;;5088394;28;20052;-73
2022/04/28 03:56:57;;;;;;;5.88;2.40;;;7.00;62.60;;;;;;5094511;28;20056;-73
2022/04/28 03:59:26;;;;;;;9.98;2.83;;;7.00;62.60;;;;;;5082782;28;20485;-73
2022/04/28 04:02:12;;;;;;;8.55;2.50;;;6.90;62.50;;;;;;5078698;28;20497;-73
2022/04/28 04:04:40;;;;;;;6.25;2.40;;;7.00;62.50;;;;;;5082805;28;20044;-72
2022/04/28 04:07:09;;;;;;;9.48;2.28;;;7.00;62.50;;;;;;5086733;28;20048;-73
2022/04/28 04:09:37;;;;;;;8.90;2.53;;;7.00;62.60;;;;;;5082617;28;20049;-73
2022/04/28 04:12:12;;;;;;;14.60;3.03;;;7.00;62.70;;;;;;5042976;28;20060;-73
2022/04/28 04:14:53;;;;;;;7.07;2.55;;;6.90;62.70;;;;;;5048307;28;20587;-73
2022/04/28 04:17:23;;;;;;;8.05;2.88;;;7.00;62.70;;;;;;5040826;28;20037;-73
2022/04/28 04:19:50;;;;;;;11.88;2.60;;;7.00;62.70;;;;;;5035800;28;20080;-73
2022/04/28 04:22:18;;;;;;;5.93;2.05;;;7.00;62.60;;;;;;5050849;28;20413;-73
2022/04/28 04:24:46;;;;;;;7.05;2.35;;;7.00;62.50;;;;;;5041789;28;20379;-73
2022/04/28 04:27:16;;;;;;;8.30;2.40;;;7.00;62.50;;;;;;5023742;28;20060;-73
2022/04/28 04:30:00;;;;;;;;;;;7.00;62.70;;;;;;5050454;28;20037;-73
2022/04/28 04:32:46;;;;;;;5.78;2.17;;;7.00;62.60;;;;;;5055024;28;19925;-73
2022/04/28 04:35:34;;;;;;;6.72;2.28;;;7.00;62.50;;;;;;5049873;28;20068;-73
2022/04/28 04:38:01;;;;;;;9.68;2.20;;;7.00;62.50;;;;;;5039625;28;20158;-74
2022/04/28 04:40:30;;;;;;;10.48;2.22;;;7.00;62.60;;;;;;5030002;28;20056;-73
2022/04/28 04:43:00;;;;;;;7.90;2.13;;;7.00;62.60;;;;;;5047609;28;20049;-73
2022/04/28 04:45:28;;;;;;;7.38;1.90;;;7.00;62.60;;;;;;5045148;28;20351;-74
2022/04/28 04:48:31;;;;;;;10.32;2.10;;;7.00;62.70;;;;;;4971410;28;20057;-73
2022/04/28 04:51:02;;;;;;;5.68;2.25;;;7.00;62.70;;;;;;4955253;28;20078;-73
2022/04/28 04:53:45;;;;;;;6.90;2.17;;;7.00;62.80;;;;;;4971720;28;20051;-72
2022/04/28 04:56:14;;;;;;;7.90;2.53;;;7.00;62.80;;;;;;4971746;28;20051;-72
2022/04/28 04:58:41;;;;;;;8.70;2.00;;;7.10;62.90;;;;;;4941590;28;20059;-73
2022/04/28 05:01:09;;;;;;;7.32;2.50;;;7.00;62.90;;;;;;4973012;28;20035;-73
2022/04/28 05:03:37;;;;;;;8.35;2.28;;;7.00;63.00;;;;;;4971087;28;20055;-73
2022/04/28 05:06:27;;;;;;;8.30;2.58;;;7.00;63.10;;;;;;4971224;28;20046;-73
2022/04/28 05:09:27;;;;;;;10.55;2.30;;;7.10;63.10;;;;;;4975143;28;20097;-74
2022/04/28 05:11:55;;;;;;;6.70;2.67;;;7.10;63.20;;;;;;5002642;28;20042;-74
2022/04/28 05:14:35;;;;;;;11.30;2.53;;;7.10;63.10;;;;;;5010438;28;20061;-74
2022/04/28 05:17:03;;;;;;;9.40;2.65;;;7.10;63.20;;;;;;4993978;28;20050;-73
2022/04/28 05:19:48;;;;;;;9.75;2.90;;;7.20;63.20;;;;;;5009601;28;20153;-73
2022/04/28 05:22:51;;;;;;;13.37;2.30;;;7.10;63.30;;;;;;4987761;28;20056;-74
2022/04/28 05:25:37;;;;;;;13.75;2.70;;;7.20;63.30;;;;;;5016805;28;20295;-73
2022/04/28 05:28:37;;;;;;;9.38;2.95;;;7.20;63.30;;;;;;4976020;28;20484;-73
2022/04/28 05:31:33;;;;;;;9.32;2.50;;;7.20;63.30;;;;;;4962153;28;20070;-73
2022/04/28 05:34:11;;;;;;;7.68;2.40;;;7.20;63.40;;;;;;4971374;28;20378;-74
2022/04/28 05:36:45;;;;;;;8.77;2.63;;;7.20;63.40;;;;;;4966401;28;20047;-73
2022/04/28 05:39:20;;;;;;;12.65;2.83;;;7.30;63.30;;;;;;4956266;28;20452;-73
2022/04/28 05:41:48;;;;;;;10.70;2.88;;;7.30;63.30;;;;;;4973627;28;20050;-72
2022/04/28 05:47:02;;;;;;;8.40;2.70;;;7.30;63.40;;;;;;4968316;28;20058;-75
2022/04/28 05:49:31;;;;;;;8.23;2.35;;;7.30;63.30;;;;;;4982162;28;20039;-74
2022/04/28 05:52:01;;;;;;;9.50;2.72;;;7.40;63.30;;;;;;4956234;28;20532;-74
2022/04/28 05:54:30;;;;;;;10.00;2.40;;;7.40;63.20;;;;;;4967375;28;20504;-74
2022/04/28 05:57:03;;;;;;;7.57;2.33;;;7.40;63.20;;;;;;4981721;28;20058;-74
2022/04/28 05:59:32;;;;;;;9.82;2.85;;;7.40;63.10;;;;;;4973260;28;20082;-74
2022/04/28 06:02:29;;;;;;;10.23;2.50;;;7.50;63.10;;;;;;4969088;28;20058;-74
2022/04/28 06:04:58;;;;;;;9.05;2.50;;;7.50;63.10;;;;;;5046022;28;20071;-74
2022/04/28 06:07:26;;;;;;;5.00;2.25;;;7.50;63.10;;;;;;5051405;28;20048;-73
2022/04/28 06:09:56;;;;;;;6.38;2.20;;;7.50;63.10;;;;;;5048680;28;20051;-72
2022/04/28 06:12:29;;;;;;;11.73;2.78;;;7.60;63.00;;;;;;5083039;28;20051;-72
2022/04/28 06:15:20;;;;;;;;;;;7.60;63.10;;;;;;5082356;28;20379;-73
2022/04/28 06:18:23;;;;;;;11.15;2.70;;;7.60;63.10;;;;;;5005885;28;20383;-75
2022/04/28 06:20:52;;;;;;;7.75;2.50;;;7.60;63.00;;;;;;4993735;28;20435;-74
2022/04/28 06:23:27;;;;;;;9.23;3.00;;;7.60;63.00;;;;;;4993831;28;20058;-74
2022/04/28 06:25:55;;;;;;;8.45;2.70;;;7.70;63.10;;;;;;4991415;28;20423;-74
2022/04/28 06:28:23;;;;;;;9.35;2.65;;;7.70;63.10;;;;;;5003858;28;20065;-74
2022/04/28 06:30:55;;;;;;;5.93;2.70;;;7.70;63.10;;;;;;4993564;28;20607;-74
2022/04/28 06:33:49;;;;;;;12.30;3.20;;;7.80;63.20;;;;;;5009018;28;20061;-74
2022/04/28 06:36:31;;;;;;;7.77;2.93;;;7.80;63.20;;;;;;4973590;28;20046;-74
2022/04/28 06:39:02;;;;;;;9.50;2.95;;;7.90;63.20;;;;;;4992026;28;20299;-74
2022/04/28 06:41:30;;;;;;;11.32;3.03;;;7.90;63.20;;;;;;5009992;28;20053;-73
2022/04/28 06:44:04;;;;;;;9.70;3.10;;;7.90;63.10;;;;;;5009648;28;20062;-73
2022/04/28 06:46:50;;;;;;;9.70;3.42;;;8.00;63.10;;;;;;5011755;28;20065;-73
2022/04/28 06:49:43;;;;;;;6.10;2.70;;;8.00;63.00;;;;;;5000069;28;20058;-73
2022/04/28 06:52:30;;;;;;;6.53;2.97;;;8.10;62.90;;;;;;5046167;28;20052;-73
2022/04/28 06:55:11;;;;;;;9.50;3.20;;;8.10;62.90;;;;;;5079152;28;20054;-73
2022/04/28 06:57:39;;;;;;;8.70;3.03;;;8.20;62.90;;;;;;5074985;28;20044;-73
2022/04/28 07:00:22;;;;;;;8.32;3.00;;;8.20;62.80;;;;;;5073371;28;20051;-73
2022/04/28 07:02:53;;;;;;;10.70;3.03;;;8.20;62.70;;;;;;5089122;28;20048;-73
2022/04/28 07:05:21;;;;;;;7.45;2.92;;;8.20;62.80;;;;;;5062512;28;20051;-73
2022/04/28 07:07:50;;;;;;;11.93;3.10;;;8.20;62.70;;;;;;5078588;28;20537;-73
2022/04/28 07:10:23;;;;;;;13.77;3.00;;;8.20;62.70;;;;;;5079210;28;20051;-73
2022/04/28 07:12:51;;;;;;;10.43;3.40;;;8.30;62.60;;;;;;5083071;28;20047;-73
2022/04/28 07:15:51;;;;;;;6.47;2.63;;;8.30;62.50;;;;;;5086528;28;20047;-73
2022/04/28 07:18:22;;;;;;;11.50;2.85;;;8.40;62.50;;;;;;5070825;28;20049;-74
2022/04/28 07:20:52;;;;;;;10.57;3.00;;;8.40;62.30;;;;;;5063554;28;20051;-74
2022/04/28 07:23:22;;;;;;;9.02;2.95;;;8.40;62.30;;;;;;5069836;28;20053;-73
2022/04/28 07:25:49;;;;;;;10.60;2.85;;;8.50;62.20;;;;;;5053518;28;20045;-73
2022/04/28 07:28:17;;;;;;;6.10;3.05;;;8.50;62.20;;;;;;5080058;28;20052;-73
2022/04/28 07:31:01;;;;;;;7.57;2.78;;;8.50;62.20;;;;;;5072713;28;20045;-73
2022/04/28 07:33:47;;;;;;;7.82;3.45;;;8.60;62.10;;;;;;5075808;28;20514;-73
2022/04/28 07:36:33;;;;;;;12.25;3.65;;;8.70;62.10;;;;;;5076082;28;20040;-72
2022/04/28 07:39:34;;;;;;;8.85;3.60;;;8.70;61.90;;;;;;5068095;28;20531;-73
2022/04/28 07:42:19;;;;;;;11.80;3.55;;;8.70;61.80;;;;;;5074513;28;20053;-73
2022/04/28 07:44:48;;;;;;;11.48;3.63;;;8.80;61.80;;;;;;5074488;28;20052;-73
2022/04/28 07:47:17;;;;;;;7.65;3.10;;;8.80;61.80;;;;;;5080537;28;20389;-73
2022/04/28 07:50:11;;;;;;;9.60;3.42;;;8.80;61.70;;;;;;5093386;28;20401;-73
2022/04/28 07:52:39;;;;;;;5.72;3.20;;;8.80;61.60;;;;;;5094683;28;20509;-73
2022/04/28 07:55:10;;;;;;;9.07;3.30;;;8.80;61.60;;;;;;5086565;28;20401;-73
2022/04/28 07:57:38;;;;;;;11.98;3.30;;;8.90;61.60;;;;;;5084386;28;20519;-74
2022/04/28 08:00:08;;;;;;;11.65;3.13;;;8.90;61.30;;;;;;5077540;28;20048;-73
2022/04/28 08:02:42;;;;;;;6.35;2.75;;;9.00;61.10;;;;;;5095425;28;20055;-73
2022/04/28 08:05:15;;;;;;;10.38;3.00;;;9.00;60.90;;;;;;5077947;28;20055;-73
2022/04/28 08:07:45;;;;;;;6.45;2.80;;;9.00;60.70;;;;;;5084132;28;20037;-72
2022/04/28 08:10:12;;;;;;;6.95;3.20;;;9.00;60.80;;;;;;5073706;28;20485;-72
2022/04/28 08:12:40;;;;;;;11.15;3.65;;;9.10;60.70;;;;;;5074293;28;20052;-73
2022/04/28 08:15:34;;;;;;;9.05;2.80;;;9.10;60.70;;;;;;5074988;28;20040;-72
2022/04/28 08:18:04;;;;;;;15.30;3.75;;;9.10;60.60;;;;;;5085401;28;20512;-72
2022/04/28 08:20:32;;;;;;;8.95;3.22;;;9.10;60.50;;;;;;5094972;28;20055;-73
2022/04/28 08:22:59;;;;;;;12.07;3.95;;;9.10;60.60;;;;;;5086658;28;20063;-73
2022/04/28 08:25:27;;;;;;;12.15;3.38;;;9.10;60.50;;;;;;5057587;28;20044;-73
2022/04/28 08:27:56;;;;;;;9.27;3.40;;;9.10;60.50;;;;;;5073601;28;20049;-73
2022/04/28 08:30:24;;;;;;;11.23;3.85;;;9.10;60.40;;;;;;5079588;28;20048;-73
2022/04/28 08:32:51;;;;;;;14.57;3.65;;;9.10;60.60;;;;;;5072263;28;20047;-74
2022/04/28 08:35:19;;;;;;;8.30;3.88;;;9.10;60.60;;;;;;5076778;28;20051;-73
2022/04/28 08:37:47;;;;;;;12.13;3.45;;;9.10;60.50;;;;;;5093026;28;20071;-74
2022/04/28 08:40:15;;;;;;;11.82;3.67;;;9.10;60.50;;;;;;5076792;28;20052;-73
2022/04/28 08:42:44;;;;;;;11.60;3.90;;;9.20;60.60;;;;;;5084027;28;20052;-73
2022/04/28 08:45:21;;;;;;;9.93;3.90;;;9.20;60.50;;;;;;5093566;28;20358;-74
2022/04/28 08:48:12;;;;;;;13.02;4.25;;;9.30;60.50;;;;;;5068773;28;20432;-74
2022/04/28 08:50:49;;;;;;;14.45;4.25;;;9.30;60.40;;;;;;5077922;28;20056;-74
2022/04/28 08:53:19;;;;;;;11.15;3.67;;;9.50;60.20;;;;;;5085885;28;20044;-73
2022/04/28 08:55:48;;;;;;;15.95;3.80;;;9.70;59.80;;;;;;5086531;28;20040;-73
2022/04/28 08:58:16;;;;;;;12.48;5.18;;;9.70;59.50;;;;;;5072678;28;20055;-73
2022/04/28 09:00:47;;;;;;;33.90;15.55;;;9.80;59.30;;;;;;5061540;28;20045;-73
2022/04/28 09:03:26;;;;;;;33.65;13.07;;;9.80;59.20;;;;;;5089447;28;20390;-73
2022/04/28 09:06:20;;;;;;;13.30;3.45;;;9.80;59.10;;;;;;5075610;28;20051;-73
2022/04/28 09:09:17;;;;;;;11.45;3.10;;;9.90;58.90;;;;;;5088942;28;20048;-73
2022/04/28 09:12:04;;;;;;;12.88;3.13;;;10.10;58.40;;;;;;5074042;28;20044;-73
2022/04/28 09:14:55;;;;;;;9.68;2.92;;;10.20;58.10;;;;;;5059877;28;20047;-73
2022/04/28 09:17:41;;;;;;;14.27;2.65;;;10.40;57.80;;;;;;5055081;28;20041;-74
2022/04/28 09:20:16;;;;;;;10.02;2.95;;;10.60;57.30;;;;;;5050167;28;20043;-74
2022/04/28 09:22:51;;;;;;;7.90;2.78;;;10.70;57.00;;;;;;5042355;28;20049;-74
2022/04/28 09:25:22;;;;;;;10.77;2.90;;;10.80;56.50;;;;;;5049144;28;20049;-74
2022/04/28 09:27:52;;;;;;;6.15;2.63;;;10.90;56.00;;;;;;5072195;28;20055;-73
2022/04/28 09:30:23;;;;;;;10.82;3.17;;;10.90;56.10;;;;;;5036783;28;20068;-73
2022/04/28 09:33:16;;;;;;;15.68;3.30;;;11.00;56.00;;;;;;5021172;28;20045;-74
2022/04/28 09:36:12;;;;;;;8.73;3.03;;;11.10;55.90;;;;;;5055175;28;20040;-73
2022/04/28 09:38:55;;;;;;;11.00;3.40;;;11.10;55.90;;;;;;5054909;28;20045;-74
2022/04/28 09:44:24;;;;;;;9.27;3.13;;;11.30;55.60;;;;;;5035530;28;20052;-74
2022/04/28 09:47:00;;;;;;;8.80;3.22;;;11.30;55.30;;;;;;5034952;28;20049;-74
2022/04/28 09:49:30;;;;;;;12.70;3.70;;;11.30;55.10;;;;;;5035407;28;20067;-74
2022/04/28 09:52:16;;;;;;;9.85;4.05;;;11.20;55.10;;;;;;5062743;28;20052;-74
2022/04/28 09:55:05;;;;;;;6.82;3.78;;;11.10;55.20;;;;;;5048831;28;20422;-74
2022/04/28 09:57:53;;;;;;;9.43;3.65;;;11.10;55.50;;;;;;5050798;28;20059;-73
2022/04/28 10:00:21;;;;;;;9.13;3.70;;;11.20;55.80;;;;;;5036691;28;20067;-73
2022/04/28 10:02:56;;;;;;;9.13;3.38;;;11.30;55.70;;;;;;5020147;28;20498;-74
2022/04/28 10:05:31;;;;;;;25.42;4.75;;;11.40;55.70;;;;;;5044874;28;20044;-75
2022/04/28 10:08:25;;;;;;;10.77;3.85;;;11.60;55.20;;;;;;5026018;28;20405;-73
2022/04/28 10:10:56;;;;;;;9.65;3.80;;;11.70;55.10;;;;;;5072531;28;20052;-74
2022/04/28 10:13:27;;;;;;;10.23;3.72;;;11.80;54.50;;;;;;5088871;28;20044;-74
2022/04/28 10:16:10;;;;;;;8.57;2.97;;;11.80;54.50;;;;;;5090242;28;20051;-74
2022/04/28 10:18:45;;;;;;;7.53;3.15;;;11.70;54.40;;;;;;5092007;28;20044;-72
2022/04/28 10:21:23;;;;;;;5.28;2.67;;;11.70;54.00;;;;;;5091779;28;20040;-73
2022/04/28 10:32:54;;;;;;;10.32;3.28;;;11.80;53.70;;;;;;5072076;28;20520;-73
2022/04/28 10:35:44;;;;;;;8.98;3.20;;;11.90;53.40;;;;;;5071311;28;20045;-73
2022/04/28 10:38:14;;;;;;;10.32;3.42;;;12.00;53.10;;;;;;5072476;28;20045;-73
2022/04/28 10:41:04;;;;;;;11.23;3.25;;;12.00;52.70;;;;;;5072138;28;20490;-73
2022/04/28 10:43:32;;;;;;;12.23;3.92;;;12.00;52.60;;;;;;5071152;28;20052;-74
2022/04/28 10:46:01;;;;;;;8.73;3.63;;;12.00;52.70;;;;;;5075774;28;20048;-74
2022/04/28 10:48:38;;;;;;;7.68;4.25;;;12.10;53.10;;;;;;5082985;28;20404;-75
2022/04/28 10:51:19;;;;;;;10.07;3.47;;;12.30;52.70;;;;;;5072267;28;20060;-72
2022/04/28 10:54:21;;;;;;;8.98;4.00;;;12.40;52.50;;;;;;5072245;28;20512;-73
2022/04/28 10:56:50;;;;;;;13.10;4.53;;;12.40;52.40;;;;;;5073047;28;20041;-73
2022/04/28 10:59:32;;;;;;;11.23;3.85;;;12.40;52.30;;;;;;5082483;28;20055;-73
2022/04/28 11:02:15;;;;;;;7.25;3.85;;;12.50;52.10;;;;;;5070274;28;20051;-73
2022/04/28 11:04:52;;;;;;;11.75;3.95;;;12.50;51.70;;;;;;5089743;28;20066;-73
2022/04/28 11:07:24;;;;;;;10.48;3.85;;;12.50;52.10;;;;;;5081662;28;20044;-74
2022/04/28 11:10:07;;;;;;;44.72;6.68;;;12.60;52.10;;;;;;5081689;28;20052;-74
2022/04/28 11:12:37;;;;;;;12.17;3.97;;;12.70;52.00;;;;;;5052249;28;20503;-74
2022/04/28 11:15:10;;;;;;;8.82;4.10;;;12.70;51.70;;;;;;5052070;28;20304;-74
2022/04/28 11:17:43;;;;;;;13.43;4.30;;;12.70;51.70;;;;;;5042758;28;20037;-74
2022/04/28 11:20:14;;;;;;;9.75;3.63;;;12.80;51.70;;;;;;5049809;28;20048;-75
2022/04/28 11:23:02;;;;;;;10.77;4.13;;;12.80;51.60;;;;;;5048461;28;20041;-75
2022/04/28 11:25:29;;;;;;;11.00;4.07;;;12.70;51.70;;;;;;5051815;28;20418;-75
2022/04/28 11:27:59;;;;;;;8.30;4.18;;;12.60;51.70;;;;;;5034030;28;20056;-74
2022/04/28 11:30:28;;;;;;;10.65;4.18;;;12.50;52.20;;;;;;5034105;28;20048;-74
2022/04/28 11:32:57;;;;;;;6.50;3.55;;;12.60;52.30;;;;;;5051253;28;20056;-74
2022/04/28 11:35:34;;;;;;;10.02;3.63;;;12.60;51.80;;;;;;5059221;28;20048;-74
2022/04/28 11:38:03;;;;;;;7.93;4.00;;;12.50;51.60;;;;;;5071137;28;20493;-74
2022/04/28 11:40:33;;;;;;;9.60;3.78;;;12.30;51.90;;;;;;5041869;28;20049;-74
2022/04/28 11:43:03;;;;;;;9.13;3.67;;;12.30;52.20;;;;;;5057861;28;20390;-74
2022/04/28 11:45:32;;;;;;;12.27;3.67;;;12.30;52.30;;;;;;5041970;28;20059;-73
2022/04/28 11:48:01;;;;;;;15.82;3.80;;;12.30;52.30;;;;;;5048249;28;20037;-74
2022/04/28 11:50:32;;;;;;;9.05;3.88;;;12.30;52.40;;;;;;5064805;28;20049;-75
2022/04/28 11:53:04;;;;;;;12.90;4.00;;;12.40;52.20;;;;;;5074034;28;20048;-75
2022/04/28 11:55:35;;;;;;;12.18;4.13;;;12.50;52.20;;;;;;5076983;28;20045;-72
2022/04/28 11:58:04;;;;;;;9.65;3.70;;;12.50;52.20;;;;;;5071625;28;20500;-72
2022/04/28 12:00:38;;;;;;;13.43;4.22;;;12.50;52.10;;;;;;5071535;28;20068;-74
2022/04/28 12:03:06;;;;;;;7.43;3.97;;;12.50;52.10;;;;;;5071520;28;20389;-74
2022/04/28 12:05:35;;;;;;;15.48;4.47;;;12.40;52.10;;;;;;5066899;28;20402;-75
2022/04/28 12:08:04;;;;;;;10.35;3.72;;;12.30;52.40;;;;;;5051257;28;20045;-74
2022/04/28 12:19:49;;;;;;;11.88;4.05;;;11.60;53.80;;;;;;4992574;28;20389;-74
2022/04/28 12:22:28;;;;;;;13.75;4.28;;;11.30;54.40;;;;;;4992711;28;20518;-73
2022/04/28 12:25:04;;;;;;;10.13;4.38;;;11.30;54.80;;;;;;4992784;28;20066;-74
2022/04/28 12:27:44;;;;;;;9.30;3.70;;;11.10;55.10;;;;;;4990400;28;20042;-75
2022/04/28 12:30:17;;;;;;;13.57;4.10;;;11.20;55.40;;;;;;4977409;28;20062;-74
2022/04/28 12:32:46;;;;;;;11.25;3.70;;;11.10;55.20;;;;;;4993055;28;20054;-73
2022/04/28 12:35:22;;;;;;;8.73;3.55;;;11.10;55.30;;;;;;4976571;28;20050;-74
2022/04/28 12:38:07;;;;;;;9.38;3.78;;;11.10;55.40;;;;;;4992637;28;20058;-73
2022/04/28 12:40:40;;;;;;;12.20;4.03;;;11.00;55.40;;;;;;4978107;28;20055;-73
2022/04/28 12:43:09;;;;;;;;;;;11.00;55.50;;;;;;4960945;28;20042;-73
2022/04/28 12:45:42;;;;;;;10.27;3.63;;;10.90;55.60;;;;;;4991889;28;20387;-74
2022/04/28 12:48:35;;;;;;;7.90;3.40;;;10.90;55.50;;;;;;4992031;28;20058;-73
2022/04/28 12:51:19;;;;;;;12.77;3.58;;;10.90;55.50;;;;;;5004549;28;20483;-73
2022/04/28 12:54:10;;;;;;;8.88;3.75;;;10.80;55.80;;;;;;4995298;28;20061;-73
2022/04/28 12:56:39;;;;;;;9.65;3.25;;;11.00;55.90;;;;;;5054222;28;20053;-73
2022/04/28 12:59:09;;;;;;;11.90;3.67;;;11.10;55.80;;;;;;5053505;28;20422;-73
2022/04/28 13:01:42;;;;;;;12.23;3.60;;;11.30;55.50;;;;;;5054106;28;20041;-72
2022/04/28 13:04:19;;;;;;;9.60;4.05;;;11.50;55.10;;;;;;5053811;28;20064;-73
2022/04/28 13:06:46;;;;;;;10.85;3.80;;;11.60;54.70;;;;;;5052781;28;20051;-73
2022/04/28 13:09:17;;;;;;;9.30;4.35;;;11.70;54.40;;;;;;5053639;28;20052;-72
2022/04/28 13:11:47;;;;;;;12.50;4.18;;;11.70;54.10;;;;;;5053473;28;20057;-72
2022/04/28 13:14:21;;;;;;;14.43;3.97;;;11.70;54.30;;;;;;5053847;28;20049;-72
2022/04/28 13:16:52;;;;;;;10.27;4.63;;;11.70;54.30;;;;;;5036138;28;20041;-72
2022/04/28 13:19:22;;;;;;;15.65;4.43;;;11.60;54.30;;;;;;5053562;28;20076;-73
2022/04/28 13:21:50;;;;;;;9.57;4.30;;;11.70;54.50;;;;;;5053704;28;20037;-73
2022/04/28 13:24:17;;;;;;;9.45;3.95;;;11.70;54.70;;;;;;5053600;28;20387;-73
2022/04/28 13:26:45;;;;;;;13.43;3.92;;;11.70;54.70;;;;;;5053591;28;20049;-73
2022/04/28 13:29:13;;;;;;;14.35;3.50;;;11.80;54.40;;;;;;5053610;28;20053;-73
2022/04/28 13:31:41;;;;;;;6.22;3.25;;;11.80;54.00;;;;;;5053469;28;20056;-74
2022/04/28 13:34:09;;;;;;;6.88;3.17;;;11.80;53.50;;;;;;5035875;28;20048;-73
2022/04/28 13:36:38;;;;;;;8.45;3.20;;;11.80;53.20;;;;;;5052672;28;20064;-73
2022/04/28 13:39:06;;;;;;;6.05;3.10;;;11.90;52.90;;;;;;5053306;28;20049;-73
2022/04/28 13:41:34;;;;;;;6.10;2.80;;;12.00;52.90;;;;;;5053340;28;20390;-73
2022/04/28 13:44:01;;;;;;;10.90;3.33;;;12.10;52.70;;;;;;5052341;28;20410;-73
2022/04/28 13:46:29;;;;;;;11.18;3.35;;;12.20;52.00;;;;;;5051734;28;20057;-73
2022/04/28 13:48:57;;;;;;;8.15;3.13;;;12.20;51.70;;;;;;5052671;28;20045;-74
2022/04/28 13:51:24;;;;;;;10.75;3.30;;;12.20;51.50;;;;;;5053067;28;20052;-74
2022/04/28 13:53:52;;;;;;;9.05;3.15;;;12.10;51.50;;;;;;5052898;28;20052;-74
2022/04/28 13:56:21;;;;;;;10.43;3.60;;;11.90;51.50;;;;;;5053048;28;20494;-73
2022/04/28 13:58:49;;;;;;;8.00;3.47;;;11.80;51.80;;;;;;5035058;28;20052;-74
2022/04/28 14:01:17;;;;;;;11.30;4.20;;;11.80;52.10;;;;;;5052927;28;20056;-73
2022/04/28 14:03:45;;;;;;;9.32;3.58;;;11.70;52.30;;;;;;5052860;28;20400;-73